createdAt,value
2022-08-07T00:02:37.371Z,14.60
2022-08-07T00:04:09.677Z,14.70
2022-08-07T00:06:45.645Z,14.70
2022-08-07T00:09:35.481Z,14.70
2022-08-07T00:12:02.771Z,14.70
2022-08-07T00:14:31.653Z,14.80
2022-08-07T00:17:03.239Z,14.70
2022-08-07T00:19:59.605Z,14.70
2022-08-07T00:22:24.704Z,14.60
2022-08-07T00:25:10.953Z,14.60
2022-08-07T00:27:52.684Z,14.70
2022-08-07T00:30:27.670Z,14.70
2022-08-07T00:33:00.323Z,14.70
2022-08-07T00:35:29.749Z,14.70
2022-08-07T00:38:00.024Z,14.60
2022-08-07T00:40:39.409Z,14.70
2022-08-07T00:43:58.970Z,14.60
2022-08-07T00:46:02.258Z,14.60
2022-08-07T00:48:32.021Z,14.60
2022-08-07T00:51:01.219Z,14.60
2022-08-07T00:53:38.917Z,14.60
2022-08-07T00:56:15.733Z,14.50
2022-08-07T00:58:47.336Z,14.40
2022-08-07T01:01:20.836Z,14.40
2022-08-07T01:03:57.020Z,14.40
2022-08-07T01:06:28.954Z,14.30
2022-08-07T01:08:58.698Z,14.30
2022-08-07T01:12:23.278Z,14.30
2022-08-07T01:14:21.318Z,14.20
2022-08-07T01:16:56.988Z,14.20
2022-08-07T01:19:26.939Z,14.20
2022-08-07T01:22:00.018Z,14.10
2022-08-07T01:24:31.153Z,14.00
2022-08-07T01:26:59.738Z,13.90
2022-08-07T01:29:31.490Z,13.90
2022-08-07T01:32:01.056Z,13.90
2022-08-07T01:34:34.234Z,13.80
2022-08-07T01:37:01.897Z,13.80
2022-08-07T01:39:40.804Z,13.70
2022-08-07T01:42:40.308Z,13.60
2022-08-07T01:45:16.085Z,13.50
2022-08-07T01:48:17.762Z,13.50
2022-08-07T01:50:36.887Z,13.30
2022-08-07T01:53:08.665Z,13.20
2022-08-07T01:55:46.141Z,13.20
2022-08-07T01:58:29.025Z,13.00
2022-08-07T02:01:09.872Z,12.90
2022-08-07T02:04:01.798Z,12.90
2022-08-07T02:06:32.756Z,12.80
2022-08-07T02:09:05.408Z,12.80
2022-08-07T02:12:03.747Z,12.80
2022-08-07T02:14:36.232Z,12.80
2022-08-07T02:17:10.968Z,12.80
2022-08-07T02:20:04.045Z,12.80
2022-08-07T02:22:31.660Z,12.80
2022-08-07T02:24:59.760Z,12.70
2022-08-07T02:27:34.213Z,12.60
2022-08-07T02:30:07.057Z,12.50
2022-08-07T02:32:38.733Z,12.30
2022-08-07T02:36:28.289Z,12.20
2022-08-07T02:38:16.462Z,12.20
2022-08-07T02:43:15.993Z,12.10
2022-08-07T02:45:58.938Z,12.00
2022-08-07T02:48:29.174Z,12.00
2022-08-07T02:50:57.466Z,12.00
2022-08-07T02:53:38.739Z,12.00
2022-08-07T02:56:17.467Z,12.10
2022-08-07T02:58:50.288Z,12.10
2022-08-07T03:01:35.443Z,12.10
2022-08-07T03:04:07.536Z,12.20
2022-08-07T03:06:45.755Z,12.20
2022-08-07T03:09:14.754Z,12.20
2022-08-07T03:12:04.500Z,12.20
2022-08-07T03:14:42.139Z,12.20
2022-08-07T03:17:16.702Z,12.20
2022-08-07T03:19:44.067Z,12.10
2022-08-07T03:22:24.165Z,12.10
2022-08-07T03:24:57.296Z,12.00
2022-08-07T03:27:30.268Z,12.00
2022-08-07T03:29:59.258Z,11.90
2022-08-07T03:32:32.271Z,11.80
2022-08-07T03:35:17.867Z,11.80
2022-08-07T03:37:53.908Z,11.70
2022-08-07T03:40:23.997Z,11.70
2022-08-07T03:43:00.098Z,11.60
2022-08-07T03:45:30.951Z,11.60
2022-08-07T03:47:59.313Z,11.50
2022-08-07T03:50:28.677Z,11.40
2022-08-07T03:53:00.108Z,11.30
2022-08-07T03:55:53.329Z,11.30
2022-08-07T03:59:05.451Z,11.30
2022-08-07T04:01:11.101Z,11.30
2022-08-07T04:03:53.379Z,11.30
2022-08-07T04:06:37.830Z,11.30
2022-08-07T04:09:08.433Z,11.20
2022-08-07T04:12:26.250Z,11.20
2022-08-07T04:14:37.430Z,11.30
2022-08-07T04:17:21.212Z,11.40
2022-08-07T04:19:52.066Z,11.40
2022-08-07T04:22:27.398Z,11.40
2022-08-07T04:24:57.977Z,11.40
2022-08-07T04:27:26.438Z,11.40
2022-08-07T04:30:01.507Z,11.40
2022-08-07T04:32:34.274Z,11.40
2022-08-07T04:35:05.667Z,11.40
2022-08-07T04:38:01.146Z,11.40
2022-08-07T04:40:22.711Z,11.30
2022-08-07T04:43:01.945Z,11.30
2022-08-07T04:46:00.536Z,11.30
2022-08-07T04:49:07.461Z,11.30
2022-08-07T04:52:14.889Z,11.40
2022-08-07T04:55:02.079Z,11.40
2022-08-07T04:58:14.034Z,11.40
2022-08-07T05:01:13.529Z,11.50
2022-08-07T05:04:17.081Z,11.60
2022-08-07T05:06:53.419Z,11.60
2022-08-07T05:09:47.502Z,11.70
2022-08-07T05:12:27.125Z,11.80
2022-08-07T05:15:21.892Z,11.90
2022-08-07T05:17:57.952Z,12.10
2022-08-07T05:20:35.256Z,12.10
2022-08-07T05:23:35.574Z,12.20
2022-08-07T05:26:12.996Z,12.30
2022-08-07T05:28:50.013Z,12.40
2022-08-07T05:31:20.785Z,12.50
2022-08-07T05:34:01.485Z,12.70
2022-08-07T05:36:35.336Z,12.90
2022-08-07T05:39:21.735Z,13.10
2022-08-07T05:42:01.045Z,13.30
2022-08-07T05:44:35.568Z,13.50
2022-08-07T05:47:17.819Z,13.70
2022-08-07T05:49:49.757Z,13.90
2022-08-07T05:52:20.708Z,14.10
2022-08-07T05:55:06.780Z,14.30
2022-08-07T05:57:42.315Z,14.50
2022-08-07T06:00:16.480Z,14.60
2022-08-07T06:02:51.002Z,14.70
2022-08-07T06:05:25.958Z,14.80
2022-08-07T06:08:13.961Z,15.00
2022-08-07T06:10:46.847Z,15.10
2022-08-07T06:13:18.892Z,15.20
2022-08-07T06:16:01.554Z,15.40
2022-08-07T06:18:32.546Z,15.50
2022-08-07T06:22:14.256Z,15.70
2022-08-07T06:24:37.909Z,15.80
2022-08-07T06:26:42.906Z,15.90
2022-08-07T06:29:10.221Z,16.10
2022-08-07T06:31:50.039Z,16.10
2022-08-07T06:34:20.503Z,16.20
2022-08-07T06:36:52.128Z,16.20
2022-08-07T06:40:17.673Z,16.30
2022-08-07T06:42:14.346Z,16.40
2022-08-07T06:44:42.463Z,16.50
2022-08-07T06:47:12.210Z,16.70
2022-08-07T06:49:52.340Z,16.90
2022-08-07T06:52:31.597Z,17.00
2022-08-07T06:55:33.881Z,17.20
2022-08-07T06:58:10.557Z,17.20
2022-08-07T07:00:42.205Z,17.30
2022-08-07T07:03:13.680Z,17.30
2022-08-07T07:06:03.765Z,17.40
2022-08-07T07:08:31.156Z,17.50
2022-08-07T07:11:01.437Z,17.60
2022-08-07T07:13:57.420Z,17.90
2022-08-07T07:16:30.243Z,18.10
2022-08-07T07:19:54.447Z,18.00
2022-08-07T07:22:12.046Z,18.00
2022-08-07T07:24:43.091Z,18.10
2022-08-07T07:27:18.440Z,18.10
2022-08-07T07:30:09.182Z,18.10
2022-08-07T07:32:40.561Z,18.30
2022-08-07T07:35:12.342Z,18.50
2022-08-07T07:37:49.618Z,18.70
2022-08-07T07:40:25.287Z,18.80
2022-08-07T07:42:55.847Z,18.90
2022-08-07T07:46:40.517Z,18.80
2022-08-07T07:48:34.769Z,18.80
2022-08-07T07:51:07.819Z,18.90
2022-08-07T07:53:51.320Z,19.00
2022-08-07T07:56:30.295Z,19.20
2022-08-07T07:59:03.510Z,19.50
2022-08-07T08:02:02.046Z,19.80
2022-08-07T08:04:25.758Z,19.90
2022-08-07T08:06:54.889Z,20.00
2022-08-07T08:09:29.588Z,20.10
2022-08-07T08:12:01.981Z,20.10
2022-08-07T08:14:36.600Z,20.30
2022-08-07T08:17:56.418Z,20.20
2022-08-07T08:20:17.276Z,20.20
2022-08-07T08:23:12.857Z,20.40
2022-08-07T08:26:07.011Z,20.30
2022-08-07T08:28:45.140Z,20.40
2022-08-07T08:31:29.853Z,20.70
2022-08-07T08:34:09.629Z,21.00
2022-08-07T08:36:40.449Z,21.10
2022-08-07T08:39:13.617Z,21.20
2022-08-07T08:41:58.788Z,21.30
2022-08-07T08:44:55.054Z,21.40
2022-08-07T08:47:29.781Z,21.70
2022-08-07T08:50:19.274Z,21.90
2022-08-07T08:53:23.738Z,22.30
2022-08-07T08:56:08.372Z,22.70
2022-08-07T08:58:57.019Z,22.80
2022-08-07T09:02:11.395Z,22.70
2022-08-07T09:05:03.883Z,23.30
2022-08-07T09:07:57.958Z,23.50
2022-08-07T09:11:14.010Z,23.60
2022-08-07T09:14:33.080Z,24.00
2022-08-07T09:17:59.670Z,23.90
2022-08-07T09:20:58.541Z,24.00
2022-08-07T09:24:52.405Z,24.20
2022-08-07T09:27:54.554Z,24.80
2022-08-07T09:30:25.454Z,25.20
2022-08-07T09:33:41.347Z,25.10
2022-08-07T09:37:14.036Z,25.20
2022-08-07T09:40:09.231Z,25.60
2022-08-07T09:43:05.328Z,25.50
2022-08-07T09:47:23.433Z,25.80
2022-08-07T09:50:03.912Z,25.60
2022-08-07T09:52:53.752Z,25.90
2022-08-07T09:56:04.113Z,26.40
2022-08-07T09:58:57.554Z,26.70
2022-08-07T10:01:51.018Z,27.20
2022-08-07T10:04:47.863Z,27.10
2022-08-07T10:07:52.199Z,27.20
2022-08-07T10:11:16.330Z,27.00
2022-08-07T10:14:23.083Z,27.50
2022-08-07T10:17:04.208Z,27.70
2022-08-07T10:20:50.347Z,27.60
2022-08-07T10:24:18.425Z,27.00
2022-08-07T10:27:18.841Z,26.50
2022-08-07T10:29:59.310Z,26.60
2022-08-07T10:33:08.474Z,27.30
2022-08-07T10:36:53.298Z,27.00
2022-08-07T10:40:14.020Z,27.20
2022-08-07T10:43:09.466Z,27.40
2022-08-07T10:45:57.113Z,27.20
2022-08-07T10:49:02.844Z,27.20
2022-08-07T10:52:01.590Z,27.70
2022-08-07T10:55:01.370Z,28.10
2022-08-07T10:58:04.941Z,28.30
2022-08-07T11:00:50.656Z,27.50
2022-08-07T11:03:54.879Z,26.90
2022-08-07T11:06:49.505Z,27.10
2022-08-07T11:10:10.281Z,27.40
2022-08-07T11:12:32.252Z,27.80
2022-08-07T11:15:17.452Z,28.10
2022-08-07T11:18:35.274Z,28.50
2022-08-07T11:24:16.472Z,28.20
2022-08-07T11:27:02.549Z,28.50
2022-08-07T11:29:47.395Z,28.50
2022-08-07T11:32:25.321Z,28.00
2022-08-07T11:35:01.566Z,28.00
2022-08-07T11:37:57.756Z,28.10
2022-08-07T11:40:59.501Z,28.40
2022-08-07T11:43:55.022Z,28.80
2022-08-07T11:46:42.259Z,28.70
2022-08-07T11:50:31.009Z,28.30
2022-08-07T11:53:25.427Z,28.30
2022-08-07T11:56:25.959Z,28.70
2022-08-07T11:59:22.140Z,28.70
2022-08-07T12:02:52.499Z,28.70
2022-08-07T12:05:49.839Z,29.30
2022-08-07T12:08:45.534Z,29.20
2022-08-07T12:11:43.493Z,28.90
2022-08-07T12:14:28.002Z,29.00
2022-08-07T12:16:58.701Z,28.80
2022-08-07T12:20:18.549Z,29.40
2022-08-07T12:24:05.120Z,29.60
2022-08-07T12:26:30.947Z,29.90
2022-08-07T12:29:38.103Z,29.20
2022-08-07T12:32:28.423Z,29.20
2022-08-07T12:34:59.380Z,29.80
2022-08-07T12:38:09.643Z,30.10
2022-08-07T12:44:03.434Z,29.70
2022-08-07T12:46:32.445Z,29.80
2022-08-07T12:49:44.743Z,29.80
2022-08-07T12:52:52.379Z,30.10
2022-08-07T12:56:02.649Z,30.30
2022-08-07T12:58:39.663Z,30.20
2022-08-07T13:01:32.217Z,30.00
2022-08-07T13:04:32.484Z,29.80
2022-08-07T13:08:12.681Z,30.10
2022-08-07T13:11:14.220Z,30.20
2022-08-07T13:14:23.066Z,30.00
2022-08-07T13:17:10.607Z,29.90
2022-08-07T13:20:00.907Z,30.00
2022-08-07T13:23:59.810Z,30.30
2022-08-07T13:26:07.672Z,30.60
2022-08-07T13:28:52.441Z,30.90
2022-08-07T13:31:57.549Z,31.20
2022-08-07T13:35:03.247Z,31.30
2022-08-07T13:38:02.871Z,31.50
2022-08-07T13:40:58.096Z,31.70
2022-08-07T13:43:28.385Z,32.10
2022-08-07T13:46:21.129Z,32.40
2022-08-07T13:48:59.600Z,32.20
2022-08-07T13:52:05.482Z,32.60
2022-08-07T13:54:23.554Z,32.90
2022-08-07T13:56:59.560Z,33.10
2022-08-07T13:59:31.557Z,34.00
2022-08-07T14:02:08.429Z,34.00
2022-08-07T14:04:54.356Z,33.60
2022-08-07T14:07:35.011Z,33.20
2022-08-07T14:10:28.238Z,34.00
2022-08-07T14:13:00.624Z,34.70
2022-08-07T14:15:39.336Z,33.90
2022-08-07T14:18:28.893Z,33.80
2022-08-07T14:22:00.487Z,34.00
2022-08-07T14:24:04.962Z,34.70
2022-08-07T14:26:50.724Z,35.60
2022-08-07T14:30:05.897Z,35.80
2022-08-07T14:32:13.343Z,36.10
2022-08-07T14:34:47.104Z,36.20
2022-08-07T14:37:17.722Z,35.60
2022-08-07T14:40:16.374Z,35.30
2022-08-07T14:43:54.728Z,34.50
2022-08-07T14:45:47.082Z,35.20
2022-08-07T14:48:20.563Z,35.40
2022-08-07T14:50:54.705Z,35.50
2022-08-07T14:54:08.590Z,35.60
2022-08-07T14:56:15.930Z,35.40
2022-08-07T15:01:52.342Z,34.90
2022-08-07T15:04:21.826Z,36.00
2022-08-07T15:06:52.844Z,36.20
2022-08-07T15:09:58.332Z,37.40
2022-08-07T15:18:14.310Z,36.10
2022-08-07T15:21:07.947Z,36.30
2022-08-07T15:25:14.604Z,36.70
2022-08-07T15:26:37.269Z,37.50
2022-08-07T15:32:01.853Z,37.60
2022-08-07T15:34:50.221Z,36.50
2022-08-07T15:38:04.297Z,36.80
2022-08-07T15:40:34.733Z,36.80
2022-08-07T15:43:53.781Z,36.70
2022-08-07T15:49:15.215Z,36.50
2022-08-07T15:54:34.138Z,34.90
2022-08-07T15:57:04.802Z,35.10
2022-08-07T15:59:40.045Z,35.70
2022-08-07T16:02:24.617Z,36.10
2022-08-07T16:05:04.466Z,36.30
2022-08-07T16:08:33.089Z,37.50
2022-08-07T16:11:26.327Z,36.60
2022-08-07T16:14:17.221Z,37.00
2022-08-07T16:18:01.651Z,37.70
2022-08-07T16:22:02.668Z,37.40
2022-08-07T16:24:35.529Z,37.70
2022-08-07T16:27:40.424Z,38.20
2022-08-07T16:30:30.903Z,38.60
2022-08-07T16:34:02.757Z,38.70
2022-08-07T16:36:31.408Z,38.90
2022-08-07T16:39:33.673Z,37.30
2022-08-07T16:42:25.212Z,36.50
2022-08-07T16:46:40.967Z,35.90
2022-08-07T16:48:30.071Z,35.60
2022-08-07T16:52:02.068Z,36.50
2022-08-07T16:54:37.557Z,37.80
2022-08-07T16:57:15.275Z,36.90
2022-08-07T16:59:52.333Z,36.00
2022-08-07T17:02:54.346Z,36.40
2022-08-07T17:06:19.035Z,36.40
2022-08-07T17:09:09.301Z,36.20
2022-08-07T17:12:05.140Z,35.80
2022-08-07T17:15:07.046Z,36.40
2022-08-07T17:17:47.514Z,36.00
2022-08-07T17:20:37.843Z,35.60
2022-08-07T17:23:32.191Z,35.60
2022-08-07T17:26:48.200Z,35.50
2022-08-07T17:30:14.177Z,35.30
2022-08-07T17:32:49.691Z,35.60
2022-08-07T17:35:55.973Z,35.00
2022-08-07T17:39:20.638Z,35.00
2022-08-07T17:42:06.824Z,34.90
2022-08-07T17:44:57.301Z,35.50
2022-08-07T17:47:53.883Z,34.60
2022-08-07T17:50:32.427Z,33.60
2022-08-07T17:54:01.142Z,31.60
2022-08-07T17:56:28.836Z,30.20
2022-08-07T17:58:57.048Z,29.10
2022-08-07T18:01:48.523Z,28.20
2022-08-07T18:04:48.436Z,27.50
2022-08-07T18:07:43.558Z,26.90
2022-08-07T18:13:23.266Z,26.40
2022-08-07T18:16:31.094Z,26.40
2022-08-07T18:21:10.229Z,26.40
2022-08-07T18:22:47.208Z,26.20
2022-08-07T18:25:40.219Z,26.20
2022-08-07T18:28:35.691Z,26.00
2022-08-07T18:31:18.814Z,25.80
2022-08-07T18:35:00.976Z,25.50
2022-08-07T18:38:57.756Z,25.40
2022-08-07T18:41:10.067Z,25.20
2022-08-07T18:44:29.128Z,25.00
2022-08-07T18:47:08.762Z,24.50
2022-08-07T18:50:29.820Z,24.30
2022-08-07T18:52:54.260Z,24.10
2022-08-07T18:55:58.824Z,23.80
2022-08-07T18:58:34.832Z,23.60
2022-08-07T19:02:06.843Z,23.40
2022-08-07T19:04:39.684Z,23.20
2022-08-07T19:07:35.091Z,23.00
2022-08-07T19:10:18.439Z,22.70
2022-08-07T19:13:11.498Z,22.50
2022-08-07T19:17:00.561Z,22.30
2022-08-07T19:19:31.951Z,22.20
2022-08-07T19:22:11.185Z,21.80
2022-08-07T19:24:46.310Z,21.70
2022-08-07T19:28:29.208Z,21.40
2022-08-07T19:31:01.412Z,21.40
2022-08-07T19:35:46.787Z,21.20
2022-08-07T19:38:17.813Z,21.00
2022-08-07T19:40:50.745Z,20.90
2022-08-07T19:43:50.357Z,20.70
2022-08-07T19:46:26.772Z,20.60
2022-08-07T19:49:07.301Z,20.60
2022-08-07T19:51:51.282Z,20.50
2022-08-07T19:54:32.983Z,20.40
2022-08-07T20:00:09.050Z,20.00
2022-08-07T20:02:51.971Z,20.00
2022-08-07T20:06:00.446Z,19.80
2022-08-07T20:08:27.505Z,19.90
2022-08-07T20:11:02.216Z,19.80
2022-08-07T20:13:56.174Z,19.70
2022-08-07T20:16:34.773Z,19.50
2022-08-07T20:19:09.821Z,19.50
2022-08-07T20:21:47.152Z,19.40
2022-08-07T20:24:28.410Z,19.30
2022-08-07T20:26:59.347Z,19.40
2022-08-07T20:29:49.464Z,19.30
2022-08-07T20:32:40.308Z,19.30
2022-08-07T20:35:16.645Z,19.10
2022-08-07T20:37:59.041Z,19.00
2022-08-07T20:40:31.486Z,18.90
2022-08-07T20:43:03.165Z,18.80
2022-08-07T20:46:26.564Z,18.80
2022-08-07T20:48:29.956Z,18.70
2022-08-07T20:51:02.618Z,18.70
2022-08-07T20:54:04.014Z,18.60
2022-08-07T20:56:32.417Z,18.50
2022-08-07T20:59:05.052Z,18.40
2022-08-07T21:01:45.327Z,18.40
2022-08-07T21:04:28.749Z,18.30
2022-08-07T21:07:04.296Z,18.30
2022-08-07T21:09:53.068Z,18.20
2022-08-07T21:12:31.114Z,18.10
2022-08-07T21:15:05.411Z,18.10
2022-08-07T21:18:20.296Z,18.00
2022-08-07T21:20:29.754Z,17.90
2022-08-07T21:23:08.083Z,17.90
2022-08-07T21:25:56.716Z,17.90
2022-08-07T21:28:48.406Z,17.80
2022-08-07T21:32:43.096Z,17.80
2022-08-07T21:34:59.664Z,17.70
2022-08-07T21:37:58.887Z,17.60
2022-08-07T21:40:35.926Z,17.60
2022-08-07T21:43:47.516Z,17.60
2022-08-07T21:46:33.386Z,17.50
2022-08-07T21:49:40.751Z,17.40
2022-08-07T21:52:54.415Z,17.30
2022-08-07T21:55:30.186Z,17.30
2022-08-07T21:58:30.037Z,17.20
2022-08-07T22:01:14.091Z,17.20
2022-08-07T22:04:02.551Z,17.10
2022-08-07T22:06:45.590Z,16.80
2022-08-07T22:09:25.309Z,16.80
2022-08-07T22:12:07.194Z,17.10
2022-08-07T22:14:59.808Z,17.30
2022-08-07T22:17:37.906Z,17.50
2022-08-07T22:20:50.006Z,17.70
2022-08-07T22:23:43.459Z,17.50
2022-08-07T22:26:29.380Z,17.20
2022-08-07T22:29:04.524Z,17.10
2022-08-07T22:32:06.425Z,17.00
2022-08-07T22:35:02.081Z,16.90
2022-08-07T22:38:02.880Z,16.80
2022-08-07T22:41:00.174Z,16.90
2022-08-07T22:43:41.302Z,16.90
2022-08-07T22:47:03.603Z,16.60
2022-08-07T22:49:37.928Z,16.50
2022-08-07T22:52:40.047Z,16.50
2022-08-07T22:55:47.615Z,16.50
2022-08-07T22:58:37.924Z,16.40
2022-08-07T23:01:10.552Z,16.30
2022-08-07T23:04:03.516Z,16.30
2022-08-07T23:06:42.766Z,16.30
2022-08-07T23:10:00.827Z,16.30
2022-08-07T23:12:58.782Z,16.30
2022-08-07T23:16:06.385Z,16.30
2022-08-07T23:19:51.392Z,16.20
2022-08-07T23:22:52.424Z,16.20
2022-08-07T23:25:42.059Z,16.10
2022-08-07T23:28:44.299Z,16.10
2022-08-07T23:34:21.946Z,16.10
2022-08-07T23:35:06.446Z,16.10
2022-08-07T23:38:36.271Z,16.10
2022-08-07T23:41:21.027Z,16.00
2022-08-07T23:44:13.020Z,16.00
2022-08-07T23:47:42.320Z,15.90
2022-08-07T23:50:39.802Z,15.90
2022-08-07T23:53:53.437Z,15.80
2022-08-07T23:56:34.949Z,15.80
